sensor_id;sensor_type;location;lat;lon;timestamp;P1;durP1;ratioP1;P2;durP2;ratioP2
10335;SDS011;5213;53.548;9.930;2023-07-16T00:01:57;4.07;;;2.40;;
10335;SDS011;5213;53.548;9.930;2023-07-16T00:04:23;4.38;;;2.47;;
10335;SDS011;5213;53.548;9.930;2023-07-16T00:06:49;2.25;;;1.98;;
10335;SDS011;5213;53.548;9.930;2023-07-16T00:09:15;4.00;;;2.40;;
10335;SDS011;5213;53.548;9.930;2023-07-16T00:11:40;2.10;;;2.00;;
10335;SDS011;5213;53.548;9.930;2023-07-16T00:14:06;2.72;;;2.35;;
10335;SDS011;5213;53.548;9.930;2023-07-16T00:16:32;5.15;;;2.38;;
10335;SDS011;5213;53.548;9.930;2023-07-16T00:18:58;4.03;;;2.30;;
10335;SDS011;5213;53.548;9.930;2023-07-16T00:21:24;2.47;;;2.28;;
10335;SDS011;5213;53.548;9.930;2023-07-16T00:23:50;2.53;;;2.30;;
10335;SDS011;5213;53.548;9.930;2023-07-16T00:26:15;4.90;;;2.75;;
10335;SDS011;5213;53.548;9.930;2023-07-16T00:28:41;3.85;;;2.72;;
10335;SDS011;5213;53.548;9.930;2023-07-16T00:31:07;5.70;;;2.80;;
10335;SDS011;5213;53.548;9.930;2023-07-16T00:33:32;3.47;;;2.53;;
10335;SDS011;5213;53.548;9.930;2023-07-16T00:35:58;3.72;;;2.25;;
10335;SDS011;5213;53.548;9.930;2023-07-16T00:38:24;2.55;;;2.30;;
10335;SDS011;5213;53.548;9.930;2023-07-16T00:40:49;3.83;;;2.22;;
10335;SDS011;5213;53.548;9.930;2023-07-16T00:43:15;2.47;;;2.20;;
10335;SDS011;5213;53.548;9.930;2023-07-16T00:45:41;3.58;;;2.70;;
10335;SDS011;5213;53.548;9.930;2023-07-16T00:48:09;3.17;;;2.40;;
10335;SDS011;5213;53.548;9.930;2023-07-16T00:50:36;3.30;;;2.40;;
10335;SDS011;5213;53.548;9.930;2023-07-16T00:53:04;2.83;;;2.60;;
10335;SDS011;5213;53.548;9.930;2023-07-16T00:55:31;3.60;;;2.53;;
10335;SDS011;5213;53.548;9.930;2023-07-16T00:58:00;3.20;;;2.65;;
10335;SDS011;5213;53.548;9.930;2023-07-16T01:00:34;2.70;;;2.50;;
10335;SDS011;5213;53.548;9.930;2023-07-16T01:03:01;3.40;;;2.72;;
10335;SDS011;5213;53.548;9.930;2023-07-16T01:05:30;3.40;;;3.10;;
10335;SDS011;5213;53.548;9.930;2023-07-16T01:08:02;3.50;;;3.20;;
10335;SDS011;5213;53.548;9.930;2023-07-16T01:10:30;4.45;;;3.60;;
10335;SDS011;5213;53.548;9.930;2023-07-16T01:12:56;3.42;;;3.10;;
10335;SDS011;5213;53.548;9.930;2023-07-16T01:15:23;4.28;;;2.90;;
10335;SDS011;5213;53.548;9.930;2023-07-16T01:17:49;4.00;;;3.05;;
10335;SDS011;5213;53.548;9.930;2023-07-16T01:20:14;5.95;;;3.10;;
10335;SDS011;5213;53.548;9.930;2023-07-16T01:28:31;4.20;;;3.05;;
10335;SDS011;5213;53.548;9.930;2023-07-16T01:31:22;4.95;;;3.55;;
10335;SDS011;5213;53.548;9.930;2023-07-16T01:33:50;3.60;;;3.20;;
10335;SDS011;5213;53.548;9.930;2023-07-16T01:36:17;3.35;;;3.05;;
10335;SDS011;5213;53.548;9.930;2023-07-16T01:38:44;5.20;;;3.30;;
10335;SDS011;5213;53.548;9.930;2023-07-16T01:41:10;6.15;;;3.00;;
10335;SDS011;5213;53.548;9.930;2023-07-16T01:43:36;3.25;;;2.40;;
10335;SDS011;5213;53.548;9.930;2023-07-16T01:46:02;3.70;;;2.75;;
10335;SDS011;5213;53.548;9.930;2023-07-16T01:48:37;3.50;;;3.20;;
10335;SDS011;5213;53.548;9.930;2023-07-16T01:51:03;3.72;;;2.50;;
10335;SDS011;5213;53.548;9.930;2023-07-16T01:53:29;5.32;;;2.97;;
10335;SDS011;5213;53.548;9.930;2023-07-16T01:55:56;4.95;;;2.97;;
10335;SDS011;5213;53.548;9.930;2023-07-16T01:58:22;3.45;;;2.22;;
10335;SDS011;5213;53.548;9.930;2023-07-16T02:00:49;3.97;;;2.50;;
10335;SDS011;5213;53.548;9.930;2023-07-16T02:03:15;2.40;;;2.20;;
10335;SDS011;5213;53.548;9.930;2023-07-16T02:05:41;3.22;;;2.10;;
10335;SDS011;5213;53.548;9.930;2023-07-16T02:08:06;2.58;;;2.17;;
10335;SDS011;5213;53.548;9.930;2023-07-16T02:10:32;3.95;;;2.17;;
10335;SDS011;5213;53.548;9.930;2023-07-16T02:12:57;2.40;;;1.85;;
10335;SDS011;5213;53.548;9.930;2023-07-16T02:15:23;4.40;;;2.30;;
10335;SDS011;5213;53.548;9.930;2023-07-16T02:17:48;4.00;;;2.05;;
10335;SDS011;5213;53.548;9.930;2023-07-16T02:20:14;2.85;;;2.42;;
10335;SDS011;5213;53.548;9.930;2023-07-16T02:22:40;3.65;;;3.03;;
10335;SDS011;5213;53.548;9.930;2023-07-16T02:25:05;4.47;;;2.80;;
10335;SDS011;5213;53.548;9.930;2023-07-16T02:27:31;4.88;;;3.20;;
10335;SDS011;5213;53.548;9.930;2023-07-16T02:29:57;5.25;;;3.10;;
10335;SDS011;5213;53.548;9.930;2023-07-16T02:32:23;5.65;;;3.50;;
10335;SDS011;5213;53.548;9.930;2023-07-16T02:34:48;5.78;;;3.33;;
10335;SDS011;5213;53.548;9.930;2023-07-16T02:37:14;3.85;;;3.10;;
10335;SDS011;5213;53.548;9.930;2023-07-16T02:39:41;4.72;;;3.40;;
10335;SDS011;5213;53.548;9.930;2023-07-16T02:42:07;4.18;;;2.97;;
10335;SDS011;5213;53.548;9.930;2023-07-16T02:44:33;3.83;;;3.33;;
10335;SDS011;5213;53.548;9.930;2023-07-16T02:47:03;4.75;;;3.10;;
10335;SDS011;5213;53.548;9.930;2023-07-16T02:49:29;3.75;;;2.70;;
10335;SDS011;5213;53.548;9.930;2023-07-16T02:51:54;3.00;;;2.50;;
10335;SDS011;5213;53.548;9.930;2023-07-16T02:54:20;2.53;;;2.22;;
10335;SDS011;5213;53.548;9.930;2023-07-16T02:56:46;4.28;;;2.70;;
10335;SDS011;5213;53.548;9.930;2023-07-16T02:59:12;3.47;;;2.80;;
10335;SDS011;5213;53.548;9.930;2023-07-16T03:01:38;3.50;;;2.55;;
10335;SDS011;5213;53.548;9.930;2023-07-16T03:04:03;7.47;;;4.10;;
10335;SDS011;5213;53.548;9.930;2023-07-16T03:06:29;4.55;;;3.42;;
10335;SDS011;5213;53.548;9.930;2023-07-16T03:08:55;3.75;;;2.50;;
10335;SDS011;5213;53.548;9.930;2023-07-16T03:11:20;4.25;;;2.63;;
10335;SDS011;5213;53.548;9.930;2023-07-16T03:13:46;4.63;;;2.70;;
10335;SDS011;5213;53.548;9.930;2023-07-16T03:16:11;2.80;;;2.40;;
10335;SDS011;5213;53.548;9.930;2023-07-16T03:18:37;3.58;;;2.50;;
10335;SDS011;5213;53.548;9.930;2023-07-16T03:21:03;2.50;;;2.30;;
10335;SDS011;5213;53.548;9.930;2023-07-16T03:23:28;3.78;;;2.33;;
10335;SDS011;5213;53.548;9.930;2023-07-16T03:25:54;3.17;;;2.42;;
10335;SDS011;5213;53.548;9.930;2023-07-16T03:28:19;5.15;;;3.25;;
10335;SDS011;5213;53.548;9.930;2023-07-16T03:30:48;4.50;;;3.20;;
10335;SDS011;5213;53.548;9.930;2023-07-16T03:33:15;3.92;;;2.70;;
10335;SDS011;5213;53.548;9.930;2023-07-16T03:35:44;4.00;;;2.90;;
10335;SDS011;5213;53.548;9.930;2023-07-16T03:38:11;3.95;;;2.85;;
10335;SDS011;5213;53.548;9.930;2023-07-16T03:40:38;5.00;;;3.20;;
10335;SDS011;5213;53.548;9.930;2023-07-16T03:43:03;4.43;;;3.10;;
10335;SDS011;5213;53.548;9.930;2023-07-16T03:45:29;4.30;;;3.10;;
10335;SDS011;5213;53.548;9.930;2023-07-16T03:47:55;2.97;;;2.70;;
10335;SDS011;5213;53.548;9.930;2023-07-16T03:50:21;4.05;;;2.83;;
10335;SDS011;5213;53.548;9.930;2023-07-16T03:52:46;3.53;;;3.20;;
10335;SDS011;5213;53.548;9.930;2023-07-16T03:55:12;6.95;;;3.95;;
10335;SDS011;5213;53.548;9.930;2023-07-16T03:57:38;5.78;;;5.18;;
10335;SDS011;5213;53.548;9.930;2023-07-16T04:00:04;6.25;;;5.22;;
10335;SDS011;5213;53.548;9.930;2023-07-16T04:02:34;5.60;;;4.90;;
10335;SDS011;5213;53.548;9.930;2023-07-16T04:05:00;5.80;;;5.18;;
10335;SDS011;5213;53.548;9.930;2023-07-16T04:07:27;5.15;;;3.88;;
10335;SDS011;5213;53.548;9.930;2023-07-16T04:09:52;3.75;;;3.17;;
10335;SDS011;5213;53.548;9.930;2023-07-16T04:12:18;3.85;;;3.17;;
10335;SDS011;5213;53.548;9.930;2023-07-16T04:14:43;3.30;;;3.00;;
10335;SDS011;5213;53.548;9.930;2023-07-16T04:17:09;4.03;;;2.92;;
10335;SDS011;5213;53.548;9.930;2023-07-16T04:19:35;2.85;;;2.60;;
10335;SDS011;5213;53.548;9.930;2023-07-16T04:22:01;5.03;;;2.50;;
10335;SDS011;5213;53.548;9.930;2023-07-16T04:24:26;4.70;;;2.30;;
10335;SDS011;5213;53.548;9.930;2023-07-16T04:26:53;2.80;;;2.22;;
10335;SDS011;5213;53.548;9.930;2023-07-16T04:29:18;2.75;;;1.98;;
10335;SDS011;5213;53.548;9.930;2023-07-16T04:31:44;3.15;;;2.30;;
10335;SDS011;5213;53.548;9.930;2023-07-16T04:34:10;4.20;;;2.42;;
10335;SDS011;5213;53.548;9.930;2023-07-16T04:36:36;2.92;;;2.10;;
10335;SDS011;5213;53.548;9.930;2023-07-16T04:39:01;2.42;;;2.22;;
10335;SDS011;5213;53.548;9.930;2023-07-16T04:41:27;2.42;;;1.88;;
10335;SDS011;5213;53.548;9.930;2023-07-16T04:43:53;2.67;;;1.92;;
10335;SDS011;5213;53.548;9.930;2023-07-16T04:46:18;5.30;;;2.00;;
10335;SDS011;5213;53.548;9.930;2023-07-16T04:48:44;2.67;;;1.98;;
10335;SDS011;5213;53.548;9.930;2023-07-16T04:51:10;3.92;;;2.33;;
10335;SDS011;5213;53.548;9.930;2023-07-16T04:53:35;3.70;;;2.30;;
10335;SDS011;5213;53.548;9.930;2023-07-16T04:56:01;3.00;;;1.90;;
10335;SDS011;5213;53.548;9.930;2023-07-16T04:58:27;2.70;;;1.95;;
10335;SDS011;5213;53.548;9.930;2023-07-16T05:00:52;2.80;;;2.00;;
10335;SDS011;5213;53.548;9.930;2023-07-16T05:03:18;5.63;;;1.92;;
10335;SDS011;5213;53.548;9.930;2023-07-16T05:05:43;4.50;;;1.90;;
10335;SDS011;5213;53.548;9.930;2023-07-16T05:08:09;3.58;;;2.10;;
10335;SDS011;5213;53.548;9.930;2023-07-16T05:10:35;2.83;;;2.25;;
10335;SDS011;5213;53.548;9.930;2023-07-16T05:13:00;2.58;;;2.05;;
10335;SDS011;5213;53.548;9.930;2023-07-16T05:15:28;3.47;;;2.10;;
10335;SDS011;5213;53.548;9.930;2023-07-16T05:17:54;5.22;;;1.90;;
10335;SDS011;5213;53.548;9.930;2023-07-16T05:20:22;3.92;;;2.00;;
10335;SDS011;5213;53.548;9.930;2023-07-16T05:22:48;3.15;;;2.35;;
10335;SDS011;5213;53.548;9.930;2023-07-16T05:25:13;4.07;;;2.20;;
10335;SDS011;5213;53.548;9.930;2023-07-16T05:27:39;3.25;;;2.95;;
10335;SDS011;5213;53.548;9.930;2023-07-16T05:30:05;6.07;;;3.20;;
10335;SDS011;5213;53.548;9.930;2023-07-16T05:32:31;4.80;;;2.90;;
10335;SDS011;5213;53.548;9.930;2023-07-16T05:34:56;3.35;;;2.53;;
10335;SDS011;5213;53.548;9.930;2023-07-16T05:37:22;5.05;;;2.75;;
10335;SDS011;5213;53.548;9.930;2023-07-16T05:39:47;4.35;;;2.50;;
10335;SDS011;5213;53.548;9.930;2023-07-16T05:42:13;2.85;;;2.35;;
10335;SDS011;5213;53.548;9.930;2023-07-16T05:44:39;3.08;;;2.70;;
10335;SDS011;5213;53.548;9.930;2023-07-16T05:47:05;3.80;;;2.58;;
10335;SDS011;5213;53.548;9.930;2023-07-16T05:49:30;5.60;;;2.78;;
10335;SDS011;5213;53.548;9.930;2023-07-16T05:51:56;3.92;;;2.45;;
10335;SDS011;5213;53.548;9.930;2023-07-16T05:54:22;3.05;;;2.30;;
10335;SDS011;5213;53.548;9.930;2023-07-16T05:56:48;4.97;;;2.05;;
10335;SDS011;5213;53.548;9.930;2023-07-16T05:59:13;3.40;;;2.50;;
10335;SDS011;5213;53.548;9.930;2023-07-16T06:01:39;4.03;;;2.50;;
10335;SDS011;5213;53.548;9.930;2023-07-16T06:04:05;3.65;;;2.50;;
10335;SDS011;5213;53.548;9.930;2023-07-16T06:06:30;3.50;;;2.40;;
10335;SDS011;5213;53.548;9.930;2023-07-16T06:08:56;3.70;;;2.22;;
10335;SDS011;5213;53.548;9.930;2023-07-16T06:11:21;4.55;;;2.70;;
10335;SDS011;5213;53.548;9.930;2023-07-16T06:13:47;3.78;;;2.30;;
10335;SDS011;5213;53.548;9.930;2023-07-16T06:16:13;2.33;;;2.13;;
10335;SDS011;5213;53.548;9.930;2023-07-16T06:18:38;4.07;;;2.35;;
10335;SDS011;5213;53.548;9.930;2023-07-16T06:21:04;6.07;;;2.22;;
10335;SDS011;5213;53.548;9.930;2023-07-16T06:23:29;3.75;;;2.13;;
10335;SDS011;5213;53.548;9.930;2023-07-16T06:25:55;3.65;;;2.03;;
10335;SDS011;5213;53.548;9.930;2023-07-16T06:28:21;4.43;;;2.05;;
10335;SDS011;5213;53.548;9.930;2023-07-16T06:30:47;5.97;;;2.30;;
10335;SDS011;5213;53.548;9.930;2023-07-16T06:33:13;3.33;;;2.15;;
10335;SDS011;5213;53.548;9.930;2023-07-16T06:35:38;4.53;;;2.42;;
10335;SDS011;5213;53.548;9.930;2023-07-16T06:38:04;4.07;;;2.30;;
10335;SDS011;5213;53.548;9.930;2023-07-16T06:40:29;5.90;;;2.85;;
10335;SDS011;5213;53.548;9.930;2023-07-16T06:42:55;4.63;;;2.60;;
10335;SDS011;5213;53.548;9.930;2023-07-16T06:45:21;4.07;;;2.53;;
10335;SDS011;5213;53.548;9.930;2023-07-16T06:47:47;4.50;;;2.42;;
10335;SDS011;5213;53.548;9.930;2023-07-16T06:50:13;5.97;;;2.83;;
10335;SDS011;5213;53.548;9.930;2023-07-16T06:52:39;3.88;;;2.80;;
10335;SDS011;5213;53.548;9.930;2023-07-16T06:55:05;3.40;;;2.13;;
10335;SDS011;5213;53.548;9.930;2023-07-16T06:57:30;6.22;;;2.70;;
10335;SDS011;5213;53.548;9.930;2023-07-16T06:59:56;4.47;;;2.70;;
10335;SDS011;5213;53.548;9.930;2023-07-16T07:02:23;5.53;;;3.10;;
10335;SDS011;5213;53.548;9.930;2023-07-16T07:04:50;6.32;;;2.70;;
10335;SDS011;5213;53.548;9.930;2023-07-16T07:07:16;7.25;;;3.08;;
10335;SDS011;5213;53.548;9.930;2023-07-16T07:09:42;6.03;;;2.83;;
10335;SDS011;5213;53.548;9.930;2023-07-16T07:12:07;8.27;;;3.15;;
10335;SDS011;5213;53.548;9.930;2023-07-16T07:14:33;4.07;;;2.80;;
10335;SDS011;5213;53.548;9.930;2023-07-16T07:16:59;6.38;;;3.25;;
10335;SDS011;5213;53.548;9.930;2023-07-16T07:19:25;4.50;;;2.90;;
10335;SDS011;5213;53.548;9.930;2023-07-16T07:21:50;5.55;;;2.90;;
10335;SDS011;5213;53.548;9.930;2023-07-16T07:24:16;7.10;;;3.10;;
10335;SDS011;5213;53.548;9.930;2023-07-16T07:26:41;7.32;;;3.03;;
10335;SDS011;5213;53.548;9.930;2023-07-16T07:29:07;6.53;;;3.05;;
10335;SDS011;5213;53.548;9.930;2023-07-16T07:31:33;5.65;;;2.58;;
10335;SDS011;5213;53.548;9.930;2023-07-16T07:33:59;5.30;;;2.60;;
10335;SDS011;5213;53.548;9.930;2023-07-16T07:36:24;3.88;;;2.70;;
10335;SDS011;5213;53.548;9.930;2023-07-16T07:38:50;6.97;;;3.30;;
10335;SDS011;5213;53.548;9.930;2023-07-16T07:41:16;4.53;;;2.67;;
10335;SDS011;5213;53.548;9.930;2023-07-16T07:43:42;5.15;;;2.90;;
10335;SDS011;5213;53.548;9.930;2023-07-16T07:46:08;5.85;;;3.28;;
10335;SDS011;5213;53.548;9.930;2023-07-16T07:48:35;7.20;;;2.92;;
10335;SDS011;5213;53.548;9.930;2023-07-16T07:51:00;4.93;;;2.70;;
10335;SDS011;5213;53.548;9.930;2023-07-16T07:53:26;4.35;;;2.50;;
10335;SDS011;5213;53.548;9.930;2023-07-16T07:55:51;2.60;;;2.40;;
10335;SDS011;5213;53.548;9.930;2023-07-16T07:58:17;8.60;;;2.95;;
10335;SDS011;5213;53.548;9.930;2023-07-16T08:00:42;4.18;;;2.60;;
10335;SDS011;5213;53.548;9.930;2023-07-16T08:03:08;5.13;;;2.60;;
10335;SDS011;5213;53.548;9.930;2023-07-16T08:05:34;5.15;;;2.75;;
10335;SDS011;5213;53.548;9.930;2023-07-16T08:07:59;4.55;;;3.13;;
10335;SDS011;5213;53.548;9.930;2023-07-16T08:10:25;9.00;;;2.92;;
10335;SDS011;5213;53.548;9.930;2023-07-16T08:12:51;4.47;;;2.65;;
10335;SDS011;5213;53.548;9.930;2023-07-16T08:15:17;5.93;;;2.70;;
10335;SDS011;5213;53.548;9.930;2023-07-16T08:17:43;5.65;;;2.60;;
10335;SDS011;5213;53.548;9.930;2023-07-16T08:20:10;4.47;;;2.20;;
10335;SDS011;5213;53.548;9.930;2023-07-16T08:22:36;5.13;;;2.67;;
10335;SDS011;5213;53.548;9.930;2023-07-16T08:25:03;5.18;;;2.47;;
10335;SDS011;5213;53.548;9.930;2023-07-16T08:27:29;3.63;;;2.28;;
10335;SDS011;5213;53.548;9.930;2023-07-16T08:29:55;3.10;;;2.30;;
10335;SDS011;5213;53.548;9.930;2023-07-16T08:32:21;5.68;;;2.40;;
10335;SDS011;5213;53.548;9.930;2023-07-16T08:34:47;2.63;;;2.03;;
10335;SDS011;5213;53.548;9.930;2023-07-16T08:37:13;5.10;;;2.50;;
10335;SDS011;5213;53.548;9.930;2023-07-16T08:39:39;3.95;;;2.55;;
10335;SDS011;5213;53.548;9.930;2023-07-16T08:42:04;4.97;;;2.53;;
10335;SDS011;5213;53.548;9.930;2023-07-16T08:44:31;4.10;;;2.75;;
10335;SDS011;5213;53.548;9.930;2023-07-16T08:46:57;3.90;;;2.30;;
10335;SDS011;5213;53.548;9.930;2023-07-16T08:49:23;3.67;;;2.70;;
10335;SDS011;5213;53.548;9.930;2023-07-16T08:51:50;5.47;;;2.78;;
10335;SDS011;5213;53.548;9.930;2023-07-16T08:54:19;4.20;;;2.75;;
10335;SDS011;5213;53.548;9.930;2023-07-16T08:56:44;6.53;;;3.17;;
10335;SDS011;5213;53.548;9.930;2023-07-16T08:59:13;6.15;;;3.15;;
10335;SDS011;5213;53.548;9.930;2023-07-16T09:01:40;3.75;;;3.13;;
10335;SDS011;5213;53.548;9.930;2023-07-16T09:04:05;4.50;;;3.10;;
10335;SDS011;5213;53.548;9.930;2023-07-16T09:06:31;6.32;;;3.42;;
10335;SDS011;5213;53.548;9.930;2023-07-16T09:08:57;6.10;;;3.40;;
10335;SDS011;5213;53.548;9.930;2023-07-16T09:11:23;4.93;;;3.45;;
10335;SDS011;5213;53.548;9.930;2023-07-16T09:13:49;4.03;;;3.05;;
10335;SDS011;5213;53.548;9.930;2023-07-16T09:16:17;4.72;;;3.53;;
10335;SDS011;5213;53.548;9.930;2023-07-16T09:18:43;6.75;;;3.58;;
10335;SDS011;5213;53.548;9.930;2023-07-16T09:21:10;5.13;;;3.58;;
10335;SDS011;5213;53.548;9.930;2023-07-16T09:23:35;4.32;;;3.50;;
10335;SDS011;5213;53.548;9.930;2023-07-16T09:26:02;4.35;;;3.20;;
10335;SDS011;5213;53.548;9.930;2023-07-16T09:28:31;5.43;;;3.90;;
10335;SDS011;5213;53.548;9.930;2023-07-16T09:31:03;5.55;;;3.85;;
10335;SDS011;5213;53.548;9.930;2023-07-16T09:33:31;6.07;;;3.80;;
10335;SDS011;5213;53.548;9.930;2023-07-16T09:35:57;5.90;;;3.83;;
10335;SDS011;5213;53.548;9.930;2023-07-16T09:38:22;9.57;;;3.92;;
10335;SDS011;5213;53.548;9.930;2023-07-16T09:40:49;6.20;;;3.53;;
10335;SDS011;5213;53.548;9.930;2023-07-16T09:43:17;5.20;;;3.65;;
10335;SDS011;5213;53.548;9.930;2023-07-16T09:45:43;7.28;;;3.85;;
10335;SDS011;5213;53.548;9.930;2023-07-16T09:48:09;4.50;;;3.50;;
10335;SDS011;5213;53.548;9.930;2023-07-16T09:50:35;7.45;;;3.47;;
10335;SDS011;5213;53.548;9.930;2023-07-16T09:53:01;4.25;;;3.40;;
10335;SDS011;5213;53.548;9.930;2023-07-16T09:55:30;9.85;;;3.90;;
10335;SDS011;5213;53.548;9.930;2023-07-16T09:57:59;5.85;;;3.80;;
10335;SDS011;5213;53.548;9.930;2023-07-16T10:00:27;5.68;;;4.00;;
10335;SDS011;5213;53.548;9.930;2023-07-16T10:02:53;3.95;;;3.25;;
10335;SDS011;5213;53.548;9.930;2023-07-16T10:05:26;6.05;;;4.00;;
10335;SDS011;5213;53.548;9.930;2023-07-16T10:07:53;13.68;;;4.05;;
10335;SDS011;5213;53.548;9.930;2023-07-16T10:10:29;7.57;;;3.85;;
10335;SDS011;5213;53.548;9.930;2023-07-16T10:13:13;6.88;;;3.85;;
10335;SDS011;5213;53.548;9.930;2023-07-16T10:15:50;6.88;;;3.70;;
10335;SDS011;5213;53.548;9.930;2023-07-16T10:18:26;5.28;;;3.40;;
10335;SDS011;5213;53.548;9.930;2023-07-16T10:20:59;8.30;;;3.67;;
10335;SDS011;5213;53.548;9.930;2023-07-16T10:23:35;10.18;;;3.88;;
10335;SDS011;5213;53.548;9.930;2023-07-16T10:26:05;4.53;;;3.45;;
10335;SDS011;5213;53.548;9.930;2023-07-16T10:28:32;5.10;;;3.80;;
10335;SDS011;5213;53.548;9.930;2023-07-16T10:30:59;6.25;;;3.40;;
10335;SDS011;5213;53.548;9.930;2023-07-16T10:33:25;6.72;;;3.90;;
10335;SDS011;5213;53.548;9.930;2023-07-16T10:35:50;5.15;;;3.67;;
10335;SDS011;5213;53.548;9.930;2023-07-16T10:38:16;4.32;;;3.30;;
10335;SDS011;5213;53.548;9.930;2023-07-16T10:40:45;5.05;;;3.55;;
10335;SDS011;5213;53.548;9.930;2023-07-16T10:43:12;5.88;;;3.70;;
10335;SDS011;5213;53.548;9.930;2023-07-16T10:45:38;4.57;;;3.17;;
10335;SDS011;5213;53.548;9.930;2023-07-16T10:48:04;3.58;;;3.00;;
10335;SDS011;5213;53.548;9.930;2023-07-16T10:50:33;3.60;;;3.20;;
10335;SDS011;5213;53.548;9.930;2023-07-16T10:53:00;5.03;;;3.53;;
10335;SDS011;5213;53.548;9.930;2023-07-16T10:55:26;4.75;;;3.30;;
10335;SDS011;5213;53.548;9.930;2023-07-16T10:57:53;6.60;;;3.63;;
10335;SDS011;5213;53.548;9.930;2023-07-16T11:00:20;4.53;;;3.83;;
10335;SDS011;5213;53.548;9.930;2023-07-16T11:02:48;4.57;;;3.63;;
10335;SDS011;5213;53.548;9.930;2023-07-16T11:05:15;5.28;;;3.78;;
10335;SDS011;5213;53.548;9.930;2023-07-16T11:07:45;5.30;;;3.78;;
10335;SDS011;5213;53.548;9.930;2023-07-16T11:10:12;4.40;;;3.65;;
10335;SDS011;5213;53.548;9.930;2023-07-16T11:12:41;7.10;;;3.45;;
10335;SDS011;5213;53.548;9.930;2023-07-16T11:15:07;4.80;;;3.60;;
10335;SDS011;5213;53.548;9.930;2023-07-16T11:17:33;4.78;;;3.75;;
10335;SDS011;5213;53.548;9.930;2023-07-16T11:19:59;5.60;;;3.33;;
10335;SDS011;5213;53.548;9.930;2023-07-16T11:22:26;5.68;;;3.25;;
10335;SDS011;5213;53.548;9.930;2023-07-16T11:24:52;4.00;;;3.08;;
10335;SDS011;5213;53.548;9.930;2023-07-16T11:27:22;6.00;;;3.00;;
10335;SDS011;5213;53.548;9.930;2023-07-16T11:29:57;4.03;;;2.72;;
10335;SDS011;5213;53.548;9.930;2023-07-16T11:32:27;3.80;;;3.22;;
10335;SDS011;5213;53.548;9.930;2023-07-16T11:34:55;3.55;;;2.85;;
10335;SDS011;5213;53.548;9.930;2023-07-16T11:37:21;3.60;;;2.97;;
10335;SDS011;5213;53.548;9.930;2023-07-16T11:39:48;4.63;;;2.92;;
10335;SDS011;5213;53.548;9.930;2023-07-16T11:42:14;3.75;;;2.92;;
10335;SDS011;5213;53.548;9.930;2023-07-16T11:44:48;3.40;;;3.10;;
10335;SDS011;5213;53.548;9.930;2023-07-16T11:47:14;3.88;;;2.72;;
10335;SDS011;5213;53.548;9.930;2023-07-16T11:49:40;3.72;;;3.03;;
10335;SDS011;5213;53.548;9.930;2023-07-16T11:52:06;6.13;;;3.08;;
10335;SDS011;5213;53.548;9.930;2023-07-16T11:54:32;3.17;;;2.90;;
10335;SDS011;5213;53.548;9.930;2023-07-16T11:56:58;5.43;;;2.78;;
10335;SDS011;5213;53.548;9.930;2023-07-16T11:59:23;4.32;;;3.03;;
10335;SDS011;5213;53.548;9.930;2023-07-16T12:01:49;5.68;;;3.20;;
10335;SDS011;5213;53.548;9.930;2023-07-16T12:04:18;5.28;;;3.50;;
10335;SDS011;5213;53.548;9.930;2023-07-16T12:06:43;3.92;;;3.33;;
10335;SDS011;5213;53.548;9.930;2023-07-16T12:09:09;6.03;;;3.25;;
10335;SDS011;5213;53.548;9.930;2023-07-16T12:11:35;5.70;;;3.40;;
10335;SDS011;5213;53.548;9.930;2023-07-16T12:14:02;4.55;;;3.30;;
10335;SDS011;5213;53.548;9.930;2023-07-16T12:16:29;4.43;;;3.30;;
10335;SDS011;5213;53.548;9.930;2023-07-16T12:18:54;6.13;;;3.40;;
10335;SDS011;5213;53.548;9.930;2023-07-16T12:21:20;4.30;;;3.05;;
10335;SDS011;5213;53.548;9.930;2023-07-16T12:23:45;2.85;;;2.58;;
10335;SDS011;5213;53.548;9.930;2023-07-16T12:26:11;3.95;;;2.85;;
10335;SDS011;5213;53.548;9.930;2023-07-16T12:28:37;3.30;;;2.70;;
10335;SDS011;5213;53.548;9.930;2023-07-16T12:31:03;3.75;;;2.60;;
10335;SDS011;5213;53.548;9.930;2023-07-16T12:33:28;5.22;;;2.75;;
10335;SDS011;5213;53.548;9.930;2023-07-16T12:35:54;3.85;;;2.95;;
10335;SDS011;5213;53.548;9.930;2023-07-16T12:38:20;9.27;;;2.80;;
10335;SDS011;5213;53.548;9.930;2023-07-16T12:40:46;4.75;;;2.92;;
10335;SDS011;5213;53.548;9.930;2023-07-16T12:43:11;3.47;;;3.00;;
10335;SDS011;5213;53.548;9.930;2023-07-16T12:45:37;4.53;;;2.90;;
10335;SDS011;5213;53.548;9.930;2023-07-16T12:48:02;2.78;;;2.58;;
10335;SDS011;5213;53.548;9.930;2023-07-16T12:50:28;3.58;;;2.47;;
10335;SDS011;5213;53.548;9.930;2023-07-16T12:52:54;4.53;;;3.00;;
10335;SDS011;5213;53.548;9.930;2023-07-16T12:55:20;2.80;;;2.40;;
10335;SDS011;5213;53.548;9.930;2023-07-16T12:57:46;4.82;;;2.67;;
10335;SDS011;5213;53.548;9.930;2023-07-16T13:00:11;6.07;;;2.75;;
10335;SDS011;5213;53.548;9.930;2023-07-16T13:02:38;3.30;;;2.50;;
10335;SDS011;5213;53.548;9.930;2023-07-16T13:05:04;2.85;;;2.63;;
10335;SDS011;5213;53.548;9.930;2023-07-16T13:07:30;3.83;;;2.70;;
10335;SDS011;5213;53.548;9.930;2023-07-16T13:09:56;4.25;;;2.50;;
10335;SDS011;5213;53.548;9.930;2023-07-16T13:12:22;4.38;;;2.67;;
10335;SDS011;5213;53.548;9.930;2023-07-16T13:14:48;4.40;;;2.53;;
10335;SDS011;5213;53.548;9.930;2023-07-16T13:17:13;3.05;;;2.42;;
10335;SDS011;5213;53.548;9.930;2023-07-16T13:19:41;3.50;;;2.50;;
10335;SDS011;5213;53.548;9.930;2023-07-16T13:22:07;5.22;;;2.53;;
10335;SDS011;5213;53.548;9.930;2023-07-16T13:24:32;3.90;;;2.42;;
10335;SDS011;5213;53.548;9.930;2023-07-16T13:26:58;4.13;;;2.78;;
10335;SDS011;5213;53.548;9.930;2023-07-16T13:29:23;6.68;;;2.60;;
10335;SDS011;5213;53.548;9.930;2023-07-16T13:31:49;3.88;;;2.60;;
10335;SDS011;5213;53.548;9.930;2023-07-16T13:34:15;4.88;;;2.75;;
10335;SDS011;5213;53.548;9.930;2023-07-16T13:36:40;3.30;;;2.30;;
10335;SDS011;5213;53.548;9.930;2023-07-16T13:39:06;5.07;;;2.50;;
10335;SDS011;5213;53.548;9.930;2023-07-16T13:41:32;3.67;;;2.70;;
10335;SDS011;5213;53.548;9.930;2023-07-16T13:43:57;3.67;;;2.58;;
10335;SDS011;5213;53.548;9.930;2023-07-16T13:46:23;5.82;;;2.88;;
10335;SDS011;5213;53.548;9.930;2023-07-16T13:48:48;2.95;;;2.45;;
10335;SDS011;5213;53.548;9.930;2023-07-16T13:51:14;2.72;;;2.33;;
10335;SDS011;5213;53.548;9.930;2023-07-16T13:53:40;4.65;;;2.50;;
10335;SDS011;5213;53.548;9.930;2023-07-16T13:56:06;6.80;;;2.60;;
10335;SDS011;5213;53.548;9.930;2023-07-16T13:58:33;3.60;;;2.50;;
10335;SDS011;5213;53.548;9.930;2023-07-16T14:00:59;2.90;;;2.40;;
10335;SDS011;5213;53.548;9.930;2023-07-16T14:03:24;2.78;;;2.47;;
10335;SDS011;5213;53.548;9.930;2023-07-16T14:05:50;3.80;;;2.58;;
10335;SDS011;5213;53.548;9.930;2023-07-16T14:08:16;3.42;;;2.50;;
10335;SDS011;5213;53.548;9.930;2023-07-16T14:10:42;4.80;;;2.67;;
10335;SDS011;5213;53.548;9.930;2023-07-16T14:13:07;2.83;;;2.63;;
10335;SDS011;5213;53.548;9.930;2023-07-16T14:15:33;5.60;;;2.40;;
10335;SDS011;5213;53.548;9.930;2023-07-16T14:17:59;3.63;;;2.63;;
10335;SDS011;5213;53.548;9.930;2023-07-16T14:20:24;4.43;;;2.38;;
10335;SDS011;5213;53.548;9.930;2023-07-16T14:22:50;4.22;;;2.67;;
10335;SDS011;5213;53.548;9.930;2023-07-16T14:25:15;2.60;;;2.40;;
10335;SDS011;5213;53.548;9.930;2023-07-16T14:27:41;3.10;;;2.22;;
10335;SDS011;5213;53.548;9.930;2023-07-16T14:30:07;3.42;;;2.63;;
10335;SDS011;5213;53.548;9.930;2023-07-16T14:32:33;2.95;;;2.50;;
10335;SDS011;5213;53.548;9.930;2023-07-16T14:34:59;3.78;;;2.65;;
10335;SDS011;5213;53.548;9.930;2023-07-16T14:37:25;2.78;;;2.40;;
10335;SDS011;5213;53.548;9.930;2023-07-16T14:39:51;2.95;;;2.65;;
10335;SDS011;5213;53.548;9.930;2023-07-16T14:42:17;4.85;;;2.50;;
10335;SDS011;5213;53.548;9.930;2023-07-16T14:44:42;3.53;;;2.40;;
10335;SDS011;5213;53.548;9.930;2023-07-16T14:47:08;3.42;;;2.60;;
10335;SDS011;5213;53.548;9.930;2023-07-16T14:49:33;4.28;;;2.90;;
10335;SDS011;5213;53.548;9.930;2023-07-16T14:52:00;3.22;;;2.55;;
10335;SDS011;5213;53.548;9.930;2023-07-16T14:54:25;3.80;;;2.75;;
10335;SDS011;5213;53.548;9.930;2023-07-16T14:56:51;3.10;;;2.70;;
10335;SDS011;5213;53.548;9.930;2023-07-16T14:59:16;5.18;;;2.80;;
10335;SDS011;5213;53.548;9.930;2023-07-16T15:01:42;3.80;;;2.97;;